Time;durP1;ratioP1;P1;durP2;ratioP2;P2;SDS_P1;SDS_P2;PMS_P1;PMS_P2;Temp;Humidity;BMP_temperature;BMP_pressure;BME280_temperature;BME280_humidity;BME280_pressure;Samples;Min_cycle;Max_cycle;Signal;HPM_P1;HPM_P2
2023/07/14 00:02:10;;;;;;;10.80;9.60;;;;;;;17.15;93.52;100438.41;103884;277;38374;-71
2023/07/14 00:04:44;;;;;;;12.00;10.10;;;;;;;17.20;93.61;100439.70;103882;278;39386;-74
2023/07/14 00:07:18;;;;;;;10.90;9.80;;;;;;;17.19;93.27;100441.88;103655;279;39393;-73
2023/07/14 00:09:52;;;;;;;12.10;9.90;;;;;;;17.16;92.97;100440.16;103864;277;39160;-73
2023/07/14 00:12:26;;;;;;;10.60;9.50;;;;;;;17.11;92.84;100439.25;103833;278;38745;-73
2023/07/14 00:15:00;;;;;;;11.00;8.90;;;;;;;17.07;92.75;100438.96;103859;278;39459;-74
2023/07/14 00:17:34;;;;;;;9.30;8.20;;;;;;;17.01;92.48;100438.48;103826;277;38266;-74
2023/07/14 00:20:26;;;;;;;9.60;8.30;;;;;;;16.95;92.45;100438.66;103876;266;39445;-74
2023/07/14 00:23:01;;;;;;;8.50;7.70;;;;;;;16.90;92.46;100443.34;103707;277;175094;-74
2023/07/14 00:25:35;;;;;;;9.40;8.30;;;;;;;16.86;92.40;100443.11;103804;277;38402;-74
2023/07/14 00:28:17;;;;;;;8.20;7.40;;;;;;;16.84;92.37;100442.56;103818;277;38692;-74
2023/07/14 00:30:51;;;;;;;11.90;7.50;;;;;;;16.79;92.31;100435.61;103882;274;38260;-74
2023/07/14 00:33:26;;;;;;;10.10;8.10;;;;;;;16.78;92.45;100434.63;103901;277;38262;-72
2023/07/14 00:36:00;;;;;;;9.60;8.60;;;;;;;16.74;92.08;100440.83;103900;278;38230;-73
2023/07/14 00:38:35;;;;;;;9.50;8.50;;;;;;;16.68;91.89;100441.20;103852;277;39220;-73
2023/07/14 00:41:15;;;;;;;9.10;7.80;;;;;;;16.61;91.62;100444.98;103650;277;39416;-74
2023/07/14 00:43:49;;;;;;;10.10;8.50;;;;;;;16.52;91.59;100444.48;103857;277;38733;-72
2023/07/14 00:46:29;;;;;;;8.90;8.00;;;;;;;16.46;91.87;100441.30;103859;277;39576;-72
2023/07/14 00:49:06;;;;;;;9.30;7.90;;;;;;;16.42;91.71;100443.70;103900;277;38421;-72
2023/07/14 00:51:39;;;;;;;9.90;7.70;;;;;;;16.36;91.81;100439.84;103865;277;39893;-73
2023/07/14 00:54:28;;;;;;;11.00;8.20;;;;;;;16.33;91.93;100436.69;103906;277;39403;-74
2023/07/14 00:57:02;;;;;;;10.40;9.30;;;;;;;16.32;91.98;100439.36;103705;279;38706;-73
2023/07/14 00:59:36;;;;;;;11.40;9.70;;;;;;;16.30;92.13;100439.13;103867;277;38267;-72
2023/07/14 01:02:24;;;;;;;10.80;9.60;;;;;;;16.26;91.99;100442.34;103852;277;38603;-72
2023/07/14 01:05:03;;;;;;;10.30;9.00;;;;;;;16.20;91.89;100445.20;103858;274;39175;-74
2023/07/14 01:07:40;;;;;;;11.80;10.60;;;;;;;16.15;92.08;100444.45;103824;277;38742;-73
2023/07/14 01:10:16;;;;;;;11.00;9.50;;;;;;;16.12;92.05;100443.71;103893;277;38621;-73
2023/07/14 01:12:54;;;;;;;10.40;9.50;;;;;;;16.09;92.04;100442.89;103820;277;38298;-73
2023/07/14 01:15:28;;;;;;;10.20;9.20;;;;;;;16.05;92.00;100438.92;103897;277;38471;-72
2023/07/14 01:18:02;;;;;;;10.80;9.60;;;;;;;16.03;92.12;100439.21;103867;277;38478;-74
2023/07/14 01:20:38;;;;;;;12.10;9.90;;;;;;;15.99;92.11;100433.95;103825;277;38479;-73
2023/07/14 01:23:30;;;;;;;11.10;10.00;;;;;;;15.95;92.17;100432.27;103841;277;38377;-73
2023/07/14 01:26:14;;;;;;;11.30;10.10;;;;;;;15.90;92.21;100436.44;103919;277;39658;-73
2023/07/14 01:28:48;;;;;;;9.70;8.80;;;;;;;15.86;92.26;100442.98;103876;277;38226;-73
2023/07/14 01:31:24;;;;;;;10.60;9.70;;;;;;;15.84;92.44;100447.52;103900;277;38243;-73
2023/07/14 01:33:59;;;;;;;10.60;9.50;;;;;;;15.83;92.53;100445.46;103856;277;38220;-73
2023/07/14 01:36:33;;;;;;;10.40;9.50;;;;;;;15.79;92.59;100452.73;103848;277;39883;-74
2023/07/14 01:39:09;;;;;;;10.10;9.10;;;;;;;15.77;92.79;100460.74;103884;277;38997;-74
2023/07/14 01:41:44;;;;;;;10.00;8.80;;;;;;;15.77;92.80;100473.96;103874;277;38829;-74
2023/07/14 01:44:26;;;;;;;9.60;8.60;;;;;;;15.74;92.58;100478.73;103850;277;38249;-74
2023/07/14 01:47:00;;;;;;;11.00;9.50;;;;;;;15.68;92.61;100478.16;103834;277;38389;-72
2023/07/14 01:49:40;;;;;;;9.70;8.70;;;;;;;15.65;92.90;100476.45;103740;277;172323;-73
2023/07/14 01:52:22;;;;;;;9.10;8.30;;;;;;;15.64;92.98;100490.70;103828;277;39632;-72
2023/07/14 01:54:59;;;;;;;9.50;8.60;;;;;;;15.61;92.65;100489.27;103797;278;38806;-73
2023/07/14 01:57:34;;;;;;;9.70;8.70;;;;;;;15.54;92.61;100482.98;103842;277;39079;-73
2023/07/14 02:00:11;;;;;;;10.20;8.90;;;;;;;15.52;93.00;100489.81;103796;277;38257;-71
2023/07/14 02:02:45;;;;;;;9.90;8.90;;;;;;;15.52;93.05;100497.16;103794;278;39037;-73
2023/07/14 02:05:26;;;;;;;10.80;8.60;;;;;;;15.47;92.83;100494.42;103804;278;39385;-73
2023/07/14 02:08:05;;;;;;;10.60;8.60;;;;;;;15.43;92.47;100489.04;103787;278;38441;-74
2023/07/14 02:10:39;;;;;;;10.40;8.90;;;;;;;15.39;92.58;100498.80;103819;278;38919;-73
2023/07/14 02:13:14;;;;;;;9.30;8.40;;;;;;;15.37;92.73;100498.20;103835;278;38223;-73
2023/07/14 02:15:47;;;;;;;10.10;9.10;;;;;;;15.37;92.97;100498.54;103840;278;39486;-74
2023/07/14 02:18:27;;;;;;;9.90;9.00;;;;;;;15.35;92.75;100496.36;103796;278;39403;-74
2023/07/14 02:21:01;;;;;;;9.80;8.70;;;;;;;15.28;92.48;100502.04;103810;277;38225;-72
2023/07/14 02:23:35;;;;;;;10.10;9.10;;;;;;;15.25;92.63;100497.64;103806;278;38338;-73
2023/07/14 02:26:15;;;;;;;9.60;8.70;;;;;;;15.23;92.86;100503.55;103826;278;39674;-73
2023/07/14 02:28:49;;;;;;;9.80;8.80;;;;;;;15.25;93.00;100510.65;103811;278;39406;-72
2023/07/14 02:31:26;;;;;;;10.20;9.20;;;;;;;15.21;92.80;100510.14;103813;278;38220;-74
2023/07/14 02:34:00;;;;;;;10.70;9.10;;;;;;;15.17;92.67;100510.55;103652;278;39634;-73
2023/07/14 02:36:39;;;;;;;10.70;9.60;;;;;;;15.14;92.71;100514.58;103784;274;38367;-73
2023/07/14 02:39:13;;;;;;;10.40;9.40;;;;;;;15.10;92.67;100512.52;103817;278;38259;-71
2023/07/14 02:41:47;;;;;;;9.90;9.00;;;;;;;15.06;92.72;100509.58;103790;277;38537;-73
2023/07/14 02:44:23;;;;;;;10.40;9.40;;;;;;;15.04;93.04;100514.80;103743;278;38286;-73
2023/07/14 02:47:00;;;;;;;11.20;10.00;;;;;;;15.04;93.02;100514.09;103816;278;38237;-73
2023/07/14 02:49:33;;;;;;;10.30;9.40;;;;;;;15.01;93.06;100516.34;103879;278;39495;-73
2023/07/14 02:52:09;;;;;;;11.70;9.60;;;;;;;15.00;93.28;100524.98;103802;278;39664;-73
2023/07/14 02:54:44;;;;;;;10.50;9.50;;;;;;;15.02;93.48;100520.69;103818;278;38820;-72
2023/07/14 02:57:19;;;;;;;11.10;10.10;;;;;;;15.03;93.67;100520.11;103809;278;38622;-73
2023/07/14 02:59:53;;;;;;;10.60;9.50;;;;;;;15.04;93.80;100531.80;103801;278;38590;-73
2023/07/14 03:02:27;;;;;;;11.20;9.40;;;;;;;15.07;94.15;100545.88;103764;278;38776;-73
2023/07/14 03:05:02;;;;;;;14.00;9.40;;;;;;;15.13;94.65;100542.23;103840;278;39405;-73
2023/07/14 03:07:37;;;;;;;10.80;9.70;;;;;;;15.18;94.94;100529.48;103851;278;39463;-73
2023/07/14 03:10:12;;;;;;;11.50;10.30;;;;;;;15.25;95.16;100533.86;103814;278;38301;-73
2023/07/14 03:12:46;;;;;;;12.00;10.90;;;;;;;15.31;95.16;100541.58;103707;278;39438;-74
2023/07/14 03:15:22;;;;;;;12.70;11.40;;;;;;;15.37;95.27;100535.79;103690;268;38830;-73
2023/07/14 03:17:57;;;;;;;12.60;11.50;;;;;;;15.44;95.56;100541.37;103870;278;39544;-72
2023/07/14 03:20:32;;;;;;;12.50;11.00;;;;;;;15.51;95.53;100542.92;103759;277;39385;-73
2023/07/14 03:23:06;;;;;;;12.30;10.30;;;;;;;15.58;95.85;100545.92;103645;279;38240;-73
2023/07/14 03:25:42;;;;;;;11.80;10.40;;;;;;;15.66;96.18;100548.81;103664;279;40054;-74
2023/07/14 03:28:16;;;;;;;11.50;10.40;;;;;;;15.75;96.32;100548.10;102901;279;897002;-72
2023/07/14 03:30:54;;;;;;;11.70;10.10;;;;;;;15.84;96.30;100542.34;103648;279;38473;-74
2023/07/14 03:33:28;;;;;;;12.90;11.30;;;;;;;15.93;96.61;100546.05;103670;279;40179;-74
2023/07/14 03:36:08;;;;;;;12.70;10.60;;;;;;;16.01;96.60;100547.69;103646;279;38807;-73
2023/07/14 03:38:44;;;;;;;11.70;9.90;;;;;;;16.11;96.70;100546.98;103674;279;38273;-73
2023/07/14 03:41:19;;;;;;;13.60;9.80;;;;;;;16.17;96.52;100551.55;103649;279;38393;-73
2023/07/14 03:43:53;;;;;;;10.00;8.90;;;;;;;16.26;96.29;100549.41;103626;279;39879;-73
2023/07/14 03:46:28;;;;;;;10.20;9.00;;;;;;;16.39;95.97;100558.52;103672;279;38503;-73
2023/07/14 03:49:02;;;;;;;10.10;9.00;;;;;;;16.69;95.61;100553.23;103655;280;39801;-71
2023/07/14 03:51:36;;;;;;;11.90;9.40;;;;;;;16.81;95.14;100554.77;103670;279;39463;-74
2023/07/14 03:54:11;;;;;;;9.40;8.40;;;;;;;17.10;96.49;100554.73;103595;279;174956;-74
2023/07/14 03:56:47;;;;;;;10.10;9.00;;;;;;;17.76;98.54;100549.30;103668;279;39906;-73
2023/07/14 03:59:21;;;;;;;9.30;8.50;;;;;;;18.51;97.18;100542.05;103691;279;38597;-72
2023/07/14 04:01:55;;;;;;;8.70;7.80;;;;;;;19.20;94.83;100544.17;103640;279;38672;-73
2023/07/14 04:04:30;;;;;;;9.50;8.50;;;;;;;19.86;92.64;100553.70;103677;279;38733;-72
2023/07/14 04:07:05;;;;;;;11.10;7.80;;;;;;;20.52;89.67;100550.67;103657;279;38706;-74
2023/07/14 04:09:39;;;;;;;8.80;8.10;;;;;;;21.13;87.20;100549.12;103694;279;38252;-75
2023/07/14 04:12:13;;;;;;;11.50;7.90;;;;;;;21.66;83.21;100543.69;103672;279;39676;-74
2023/07/14 04:15:09;;;;;;;8.20;7.40;;;;;;;22.08;79.93;100549.77;103701;279;39822;-73
2023/07/14 04:17:43;;;;;;;9.00;7.70;;;;;;;22.33;76.53;100552.73;103535;279;38515;-74
2023/07/14 04:20:18;;;;;;;11.90;7.10;;;;;;;22.23;74.52;100558.88;103570;279;39407;-74
2023/07/14 04:22:52;;;;;;;9.00;7.40;;;;;;;21.87;73.38;100565.73;103678;279;38424;-74
2023/07/14 04:25:26;;;;;;;8.40;7.20;;;;;;;21.45;73.35;100562.58;103710;279;38682;-74
2023/07/14 04:28:00;;;;;;;11.90;8.40;;;;;;;21.10;73.88;100566.73;103684;279;39472;-72
2023/07/14 04:30:35;;;;;;;9.10;7.70;;;;;;;20.81;74.17;100569.40;103703;279;38394;-73
2023/07/14 04:33:09;;;;;;;9.10;7.50;;;;;;;20.83;75.41;100563.59;103681;279;38346;-74
2023/07/14 04:35:43;;;;;;;9.10;7.60;;;;;;;21.17;75.54;100568.91;103713;279;38438;-73
2023/07/14 04:38:19;;;;;;;8.20;7.30;;;;;;;21.40;75.33;100569.20;103695;279;38692;-74
2023/07/14 04:40:53;;;;;;;11.70;7.50;;;;;;;21.47;74.56;100568.27;103755;279;38576;-74
2023/07/14 04:43:27;;;;;;;10.80;7.30;;;;;;;21.35;73.70;100571.85;103752;279;38244;-74
2023/07/14 04:46:01;;;;;;;7.60;6.80;;;;;;;21.22;73.53;100572.77;103564;279;38487;-74
2023/07/14 04:48:39;;;;;;;9.10;7.70;;;;;;;21.13;73.55;100578.77;103742;279;38335;-76
2023/07/14 04:51:13;;;;;;;9.60;6.90;;;;;;;20.96;73.75;100578.16;103722;279;38307;-74
2023/07/14 04:53:47;;;;;;;11.20;7.40;;;;;;;20.92;74.21;100581.70;103655;279;174772;-72
2023/07/14 04:56:23;;;;;;;8.70;6.80;;;;;;;20.96;74.61;100585.40;103747;279;38377;-73
2023/07/14 04:58:57;;;;;;;8.00;6.30;;;;;;;20.98;74.71;100582.77;103755;279;39051;-74
2023/07/14 05:01:31;;;;;;;8.80;7.00;;;;;;;20.91;73.96;100587.60;103717;279;38531;-74
2023/07/14 05:04:06;;;;;;;7.70;6.50;;;;;;;20.88;74.61;100594.42;103732;279;40163;-73
2023/07/14 05:06:41;;;;;;;8.30;7.40;;;;;;;21.12;74.90;100592.20;103755;279;39407;-73
2023/07/14 05:09:16;;;;;;;10.00;7.70;;;;;;;21.15;73.49;100600.46;103716;279;38618;-72
2023/07/14 05:11:51;;;;;;;9.40;7.30;;;;;;;20.99;73.33;100600.46;103697;278;38403;-74
2023/07/14 05:14:27;;;;;;;7.90;6.90;;;;;;;20.91;73.37;100606.20;103663;279;38331;-73
2023/07/14 05:17:02;;;;;;;8.70;6.80;;;;;;;20.71;73.17;100603.30;103771;279;38227;-72
2023/07/14 05:19:37;;;;;;;10.20;7.60;;;;;;;20.75;74.99;100603.89;103416;279;39219;-73
2023/07/14 05:22:11;;;;;;;10.30;7.10;;;;;;;21.57;76.41;100602.08;103700;279;38289;-71
2023/07/14 05:24:46;;;;;;;7.20;5.90;;;;;;;22.52;74.70;100602.07;103711;279;38650;-74
2023/07/14 05:27:21;;;;;;;7.20;5.90;;;;;;;23.47;71.83;100601.76;103708;279;38283;-74
2023/07/14 05:29:57;;;;;;;9.10;6.40;;;;;;;24.36;68.73;100603.34;103714;279;38300;-73
2023/07/14 05:32:32;;;;;;;8.60;5.60;;;;;;;25.27;66.07;100599.58;103727;279;38516;-73
2023/07/14 05:35:07;;;;;;;7.10;5.80;;;;;;;26.03;62.50;100602.40;103727;279;38402;-74
2023/07/14 05:37:42;;;;;;;8.70;5.80;;;;;;;26.73;59.82;100599.65;103707;279;39389;-72
2023/07/14 05:40:17;;;;;;;6.20;5.30;;;;;;;27.49;57.16;100600.17;103746;279;38256;-72
2023/07/14 05:42:51;;;;;;;8.50;5.50;;;;;;;28.17;54.34;100607.77;103748;279;38538;-73
2023/07/14 05:45:29;;;;;;;5.90;5.30;;;;;;;28.70;51.99;100605.70;103742;279;38352;-74
2023/07/14 05:48:03;;;;;;;7.60;5.00;;;;;;;29.19;51.09;100604.71;103698;279;38238;-73
2023/07/14 05:50:39;;;;;;;11.20;5.50;;;;;;;29.71;50.12;100606.16;103671;279;39430;-73
2023/07/14 05:53:13;;;;;;;6.00;4.60;;;;;;;30.10;48.84;100608.68;103705;279;38288;-72
2023/07/14 05:55:49;;;;;;;6.70;4.50;;;;;;;30.40;47.09;100609.46;103648;279;174251;-73
2023/07/14 05:58:24;;;;;;;6.90;4.70;;;;;;;30.71;46.45;100607.80;103711;279;39400;-72
2023/07/14 06:00:59;;;;;;;8.40;5.00;;;;;;;31.10;45.12;100612.40;103642;280;38505;-73
2023/07/14 06:03:34;;;;;;;6.00;4.40;;;;;;;31.45;44.39;100612.56;103581;279;38745;-73
2023/07/14 06:06:10;;;;;;;7.50;4.50;;;;;;;31.80;43.31;100611.45;103713;279;38470;-73
2023/07/14 06:08:50;;;;;;;5.20;4.30;;;;;;;32.08;42.89;100607.73;103601;279;174127;-74
2023/07/14 06:11:25;;;;;;;6.70;4.50;;;;;;;32.26;41.84;100613.98;103703;279;39668;-73
2023/07/14 06:13:59;;;;;;;4.40;3.70;;;;;;;32.47;41.59;100618.42;103694;279;38308;-72
2023/07/14 06:16:37;;;;;;;4.30;3.80;;;;;;;32.65;41.22;100621.13;103664;279;38484;-71
2023/07/14 06:19:11;;;;;;;5.30;3.70;;;;;;;32.89;40.92;100623.30;103676;279;38565;-71
2023/07/14 06:21:46;;;;;;;6.70;3.60;;;;;;;33.17;40.42;100620.70;103722;279;38242;-75
2023/07/14 06:24:22;;;;;;;4.90;3.70;;;;;;;33.37;39.82;100620.79;103668;279;38252;-73
2023/07/14 06:27:00;;;;;;;3.20;2.90;;;;;;;33.68;38.71;100618.73;103709;279;38237;-74
2023/07/14 06:29:34;;;;;;;6.20;3.30;;;;;;;33.84;38.34;100616.44;103667;279;38729;-73
2023/07/14 06:32:10;;;;;;;5.10;3.60;;;;;;;34.05;37.76;100622.20;103022;279;885480;-74
2023/07/14 06:34:46;;;;;;;4.00;3.10;;;;;;;34.36;36.79;100621.77;103703;279;39411;-73
2023/07/14 06:37:20;;;;;;;4.90;3.90;;;;;;;34.61;36.04;100623.11;103566;279;173985;-75
2023/07/14 06:39:55;;;;;;;5.30;3.70;;;;;;;34.68;36.00;100622.68;103549;280;173791;-76
2023/07/14 06:42:30;;;;;;;5.30;3.50;;;;;;;34.70;35.37;100623.33;103677;279;38354;-79
2023/07/14 06:45:04;;;;;;;3.80;3.30;;;;;;;34.92;35.01;100630.61;103658;279;39905;-74
2023/07/14 06:47:39;;;;;;;3.80;3.50;;;;;;;34.97;35.00;100631.05;103673;279;39110;-74
2023/07/14 06:50:13;;;;;;;4.90;3.30;;;;;;;35.01;34.46;100631.64;103713;279;38969;-74
2023/07/14 06:52:48;;;;;;;4.10;3.40;;;;;;;35.09;34.37;100623.73;103721;279;39932;-73
2023/07/14 06:55:22;;;;;;;6.30;3.40;;;;;;;35.27;34.27;100626.20;103717;279;38239;-75
2023/07/14 06:57:57;;;;;;;7.50;3.20;;;;;;;35.47;33.95;100625.16;103686;279;38238;-74
2023/07/14 07:00:33;;;;;;;6.60;3.30;;;;;;;35.78;33.28;100623.77;103612;279;38262;-74
2023/07/14 07:03:07;;;;;;;4.00;3.00;;;;;;;35.46;31.67;100628.45;103671;279;38248;-74
2023/07/14 07:05:43;;;;;;;5.80;3.00;;;;;;;35.19;33.37;100620.38;103694;279;39434;-73
2023/07/14 07:08:18;;;;;;;5.30;3.10;;;;;;;35.44;33.29;100620.09;103685;279;38438;-73
2023/07/14 07:10:53;;;;;;;4.10;3.00;;;;;;;35.77;32.82;100618.66;103653;279;38353;-75
2023/07/14 07:13:27;;;;;;;5.20;3.00;;;;;;;35.98;32.94;100616.85;103678;279;39045;-72
2023/07/14 07:16:01;;;;;;;5.80;3.20;;;;;;;36.11;32.24;100619.70;103648;279;38253;-72
2023/07/14 07:18:36;;;;;;;3.40;2.80;;;;;;;36.26;32.10;100617.67;103698;279;38234;-72
2023/07/14 07:21:12;;;;;;;4.30;3.10;;;;;;;36.31;31.82;100616.92;103680;279;38230;-72
2023/07/14 07:23:48;;;;;;;4.10;3.70;;;;;;;36.38;31.54;100611.82;103623;279;38386;-73
2023/07/14 07:26:25;;;;;;;7.90;3.70;;;;;;;36.37;31.69;100610.16;103730;279;39122;-73
2023/07/14 07:28:59;;;;;;;5.10;3.00;;;;;;;36.54;30.96;100611.61;103696;279;38289;-75
2023/07/14 07:31:34;;;;;;;3.50;3.10;;;;;;;36.63;30.68;100616.72;103664;279;38719;-73
2023/07/14 07:34:08;;;;;;;3.60;3.00;;;;;;;36.62;30.84;100617.52;103603;279;172809;-73
2023/07/14 07:36:43;;;;;;;4.40;2.90;;;;;;;36.75;30.81;100619.21;103730;279;39434;-73
2023/07/14 07:39:17;;;;;;;3.40;2.30;;;;;;;37.01;30.24;100619.45;103724;279;38279;-75
2023/07/14 07:41:52;;;;;;;4.40;2.90;;;;;;;37.10;30.10;100618.92;103659;279;173607;-78
2023/07/14 07:44:26;;;;;;;4.50;3.00;;;;;;;37.47;29.28;100618.65;103751;279;38234;-73
2023/07/14 07:47:01;;;;;;;4.30;2.80;;;;;;;37.69;29.00;100623.98;103750;268;38355;-74
2023/07/14 07:49:35;;;;;;;3.40;3.10;;;;;;;37.78;28.95;100621.23;103808;279;38887;-81
2023/07/14 07:52:12;;;;;;;4.70;3.10;;;;;;;37.84;29.37;100623.48;103730;279;38479;-72
2023/07/14 07:54:46;;;;;;;5.30;3.10;;;;;;;37.85;29.12;100624.16;103715;279;39584;-74
2023/07/14 07:57:20;;;;;;;4.60;2.60;;;;;;;37.80;29.55;100625.98;103711;272;40137;-75
2023/07/14 07:59:54;;;;;;;4.40;2.90;;;;;;;37.96;29.31;100621.68;103746;279;38263;-74
2023/07/14 08:02:31;;;;;;;3.80;2.60;;;;;;;38.07;28.53;100622.69;103744;279;38493;-72
2023/07/14 08:05:06;;;;;;;3.90;2.90;;;;;;;38.18;28.65;100623.08;103684;279;40527;-73
2023/07/14 08:07:44;;;;;;;3.40;2.20;;;;;;;38.29;28.16;100627.03;103747;279;38705;-74
2023/07/14 08:10:17;;;;;;;;;;;;;;;38.48;27.68;100625.52;103721;279;38600;-74
2023/07/14 08:12:52;;;;;;;3.70;2.30;;;;;;;38.52;28.28;100628.22;103772;279;39249;-80
2023/07/14 08:15:26;;;;;;;5.30;2.10;;;;;;;38.74;27.70;100626.97;103716;279;38277;-72
2023/07/14 08:18:01;;;;;;;3.70;2.20;;;;;;;38.96;27.60;100631.21;103749;279;39633;-75
2023/07/14 08:20:36;;;;;;;3.00;2.00;;;;;;;39.13;27.21;100633.34;103689;279;39647;-75
2023/07/14 08:23:15;;;;;;;2.90;2.00;;;;;;;39.20;26.30;100635.90;103485;279;40607;-73
2023/07/14 08:25:58;;;;;;;2.70;1.70;;;;;;;38.72;25.52;100635.27;103660;280;39486;-73
2023/07/14 08:28:40;;;;;;;3.70;1.90;;;;;;;38.31;26.98;100641.05;103609;280;38991;-75
2023/07/14 08:31:17;;;;;;;3.60;1.70;;;;;;;37.78;26.47;100638.91;103670;280;38567;-74
2023/07/14 08:33:52;;;;;;;3.60;1.50;;;;;;;37.21;27.37;100640.51;103676;280;38800;-75
2023/07/14 08:36:28;;;;;;;2.30;1.80;;;;;;;36.67;28.11;100644.42;103652;280;38378;-75
2023/07/14 08:39:06;;;;;;;4.00;2.50;;;;;;;36.72;28.47;100643.99;103511;280;171190;-75
2023/07/14 08:41:43;;;;;;;4.90;2.10;;;;;;;37.04;28.48;100644.05;103641;280;39187;-75
2023/07/14 08:44:41;;;;;;;4.90;2.10;;;;;;;36.91;27.92;100649.29;103628;280;38342;-76
2023/07/14 08:47:21;;;;;;;5.00;2.50;;;;;;;37.29;27.20;100647.90;103637;280;38309;-74
2023/07/14 08:49:59;;;;;;;3.90;1.70;;;;;;;37.71;27.14;100644.63;103653;280;38800;-74
2023/07/14 08:52:34;;;;;;;2.70;2.00;;;;;;;38.17;26.25;100643.27;103638;280;40029;-74
2023/07/14 08:55:12;;;;;;;2.00;1.60;;;;;;;38.44;26.39;100645.96;103647;280;39775;-74
2023/07/14 08:57:51;;;;;;;2.40;1.30;;;;;;;38.71;24.84;100644.55;103645;280;38284;-72
2023/07/14 09:00:31;;;;;;;4.50;2.10;;;;;;;38.83;24.86;100646.95;103606;280;38646;-73
2023/07/14 09:03:12;;;;;;;3.10;1.50;;;;;;;38.98;24.61;100647.73;103510;280;38624;-73
2023/07/14 09:05:52;;;;;;;3.40;1.50;;;;;;;39.28;23.84;100647.55;103675;280;38292;-76
2023/07/14 09:08:29;;;;;;;6.30;1.60;;;;;;;39.53;23.42;100646.25;103662;280;38290;-74
2023/07/14 09:11:12;;;;;;;2.90;1.70;;;;;;;39.60;23.39;100646.15;103609;280;38832;-74
2023/07/14 09:13:51;;;;;;;3.70;1.60;;;;;;;39.42;23.14;100649.58;103494;280;39458;-76
2023/07/14 09:16:29;;;;;;;3.60;1.50;;;;;;;39.44;23.66;100650.52;103577;281;38560;-72
2023/07/14 09:19:08;;;;;;;4.20;1.60;;;;;;;39.34;23.19;100655.94;103496;280;39413;-73
2023/07/14 09:21:46;;;;;;;2.80;1.40;;;;;;;38.94;22.47;100655.23;103697;280;38221;-74
2023/07/14 09:24:27;;;;;;;2.80;1.40;;;;;;;38.12;23.15;100658.98;103717;279;39447;-75
2023/07/14 09:27:06;;;;;;;2.90;1.40;;;;;;;37.56;23.65;100656.33;103705;280;39669;-74
2023/07/14 09:29:44;;;;;;;2.60;1.60;;;;;;;36.92;24.17;100656.02;103749;279;38407;-73
2023/07/14 09:32:23;;;;;;;;;;;;;;;36.51;24.73;100655.27;103746;279;39684;-73
2023/07/14 09:34:59;;;;;;;;;;;;;;;35.85;24.10;100655.54;103743;279;39045;-74
2023/07/14 09:37:36;;;;;;;4.50;1.50;;;;;;;35.07;25.46;100656.13;103696;279;39411;-75
2023/07/14 09:40:19;;;;;;;3.40;1.20;;;;;;;34.64;26.00;100656.56;103728;279;39415;-73
2023/07/14 09:42:54;;;;;;;2.00;1.20;;;;;;;34.20;26.65;100652.77;103756;279;38559;-75
2023/07/14 09:45:30;;;;;;;2.00;1.20;;;;;;;34.00;27.52;100650.05;103740;279;38320;-72
2023/07/14 09:48:12;;;;;;;3.00;1.30;;;;;;;33.90;26.80;100648.01;103692;279;38989;-72
2023/07/14 09:50:52;;;;;;;3.80;1.30;;;;;;;33.81;27.33;100643.02;103726;279;38480;-75
2023/07/14 09:53:25;;;;;;;2.50;1.20;;;;;;;33.76;27.86;100641.51;103684;279;38262;-74
2023/07/14 09:56:02;;;;;;;4.60;1.40;;;;;;;33.65;26.68;100646.35;103673;279;38243;-72
2023/07/14 09:58:37;;;;;;;4.90;1.40;;;;;;;33.50;27.38;100644.33;103710;279;39348;-72
2023/07/14 10:01:16;;;;;;;2.30;1.30;;;;;;;33.43;27.49;100639.40;103681;279;38573;-72
2023/07/14 10:03:54;;;;;;;1.50;1.20;;;;;;;33.32;27.74;100634.89;103683;279;38371;-74
2023/07/14 10:06:30;;;;;;;2.30;1.10;;;;;;;33.19;26.87;100628.44;103730;279;38277;-71
2023/07/14 10:09:10;;;;;;;2.80;1.20;;;;;;;33.10;27.73;100631.02;103728;279;39431;-77
2023/07/14 10:11:46;;;;;;;1.80;1.40;;;;;;;33.06;28.85;100631.95;103699;279;39847;-72
2023/07/14 10:14:27;;;;;;;1.50;1.00;;;;;;;33.00;28.76;100628.86;103602;279;174144;-73
2023/07/14 10:17:03;;;;;;;1.90;1.20;;;;;;;32.93;28.64;100624.65;103750;279;38244;-73
2023/07/14 10:19:40;;;;;;;2.80;1.40;;;;;;;32.92;28.71;100623.06;103662;275;39695;-73
2023/07/14 10:22:19;;;;;;;2.60;1.40;;;;;;;32.98;28.92;100623.18;103681;279;38375;-71
2023/07/14 10:25:00;;;;;;;1.70;1.10;;;;;;;33.04;28.94;100621.38;103655;280;38460;-75
2023/07/14 10:27:36;;;;;;;3.10;1.60;;;;;;;33.00;28.81;100618.23;103697;279;39414;-74
2023/07/14 10:30:21;;;;;;;2.10;1.10;;;;;;;33.01;27.98;100616.15;103687;279;38404;-72
2023/07/14 10:32:56;;;;;;;2.80;1.40;;;;;;;32.91;28.42;100616.13;103609;279;38622;-73
2023/07/14 10:35:33;;;;;;;4.70;1.20;;;;;;;32.90;28.31;100618.27;103677;279;38290;-73
2023/07/14 10:38:14;;;;;;;3.40;1.20;;;;;;;32.93;28.32;100619.39;103681;279;38725;-72
2023/07/14 10:40:59;;;;;;;2.00;1.00;;;;;;;32.91;27.97;100615.65;103732;279;38266;-73
2023/07/14 10:43:38;;;;;;;2.10;1.20;;;;;;;32.81;28.46;100615.98;103680;279;38432;-72
2023/07/14 10:46:18;;;;;;;2.20;1.20;;;;;;;32.76;28.67;100610.35;103717;279;38303;-74
2023/07/14 10:48:56;;;;;;;2.30;1.10;;;;;;;32.74;28.67;100609.47;103715;279;38302;-73
2023/07/14 10:51:36;;;;;;;1.60;1.00;;;;;;;32.74;28.05;100610.59;103703;280;40257;-73
2023/07/14 10:54:16;;;;;;;2.20;1.00;;;;;;;32.62;27.67;100608.71;103683;279;39268;-73
2023/07/14 10:56:56;;;;;;;1.70;1.20;;;;;;;32.39;28.01;100607.80;103681;279;38244;-73
2023/07/14 10:59:35;;;;;;;1.70;1.00;;;;;;;32.34;28.33;100605.83;103687;279;38979;-72
2023/07/14 11:02:21;;;;;;;3.40;1.40;;;;;;;32.36;27.99;100603.70;103671;279;39425;-74
2023/07/14 11:05:04;;;;;;;2.20;1.30;;;;;;;32.06;27.89;100604.30;103683;279;39431;-73
2023/07/14 11:07:39;;;;;;;2.00;1.00;;;;;;;31.55;28.08;100603.45;103500;279;38213;-72
2023/07/14 11:10:26;;;;;;;1.30;1.00;;;;;;;31.22;28.31;100602.46;103698;279;38619;-72
2023/07/14 11:13:06;;;;;;;1.70;1.20;;;;;;;31.07;28.60;100595.64;103686;279;38401;-74
2023/07/14 11:15:45;;;;;;;2.50;0.90;;;;;;;30.99;28.76;100594.35;103569;279;38563;-74
2023/07/14 11:18:30;;;;;;;4.40;1.10;;;;;;;30.76;29.05;100595.13;103545;279;39831;-74
2023/07/14 11:21:40;;;;;;;1.40;1.00;;;;;;;30.43;29.11;100597.63;103722;279;38515;-73
2023/07/14 11:24:22;;;;;;;1.40;1.10;;;;;;;30.04;29.80;100594.77;103643;279;38243;-72
2023/07/14 11:27:09;;;;;;;3.00;1.30;;;;;;;30.03;30.52;100591.67;103689;268;38739;-74
2023/07/14 11:29:51;;;;;;;1.80;1.00;;;;;;;30.16;30.51;100592.94;103674;279;39660;-73
2023/07/14 11:32:29;;;;;;;4.30;1.30;;;;;;;30.09;29.97;100594.88;103647;279;38425;-73
2023/07/14 11:35:06;;;;;;;2.20;1.00;;;;;;;29.96;30.17;100596.11;103721;279;40116;-72
2023/07/14 11:37:53;;;;;;;2.00;1.10;;;;;;;29.94;30.76;100593.66;103732;279;38944;-73
2023/07/14 11:40:28;;;;;;;1.90;1.00;;;;;;;30.01;30.74;100592.39;103714;279;40385;-75
2023/07/14 11:43:02;;;;;;;2.50;1.10;;;;;;;30.00;29.99;100594.90;103696;279;38577;-75
2023/07/14 11:45:36;;;;;;;1.80;0.90;;;;;;;29.95;29.86;100589.40;103762;279;38261;-74
2023/07/14 11:48:34;;;;;;;1.70;1.00;;;;;;;29.88;29.96;100596.45;103662;279;39457;-73
2023/07/14 11:51:15;;;;;;;5.00;1.10;;;;;;;29.61;29.94;100599.98;103692;279;39506;-72
2023/07/14 11:54:09;;;;;;;1.60;1.20;;;;;;;29.53;30.37;100596.30;103666;279;38525;-74
2023/07/14 11:56:44;;;;;;;1.50;1.00;;;;;;;29.62;30.55;100594.49;103685;279;38659;-74
2023/07/14 11:59:24;;;;;;;2.00;1.40;;;;;;;29.71;30.43;100592.18;103665;279;38541;-74
2023/07/14 12:02:17;;;;;;;1.30;1.00;;;;;;;29.67;30.72;100597.66;103724;279;38236;-73
2023/07/14 12:05:02;;;;;;;2.50;0.90;;;;;;;29.73;30.42;100595.17;103683;279;38514;-74
2023/07/14 12:07:36;;;;;;;2.10;1.40;;;;;;;29.70;29.39;100594.08;103665;279;38321;-74